sensor_id;sensor_type;location;lat;lon;timestamp;P1;durP1;ratioP1;P2;durP2;ratioP2
30303;SDS011;17112;48.636;10.152;2022-07-11T00:00:07;3.38;;;1.30;;
30303;SDS011;17112;48.636;10.152;2022-07-11T00:02:35;2.30;;;1.25;;
30303;SDS011;17112;48.636;10.152;2022-07-11T00:05:02;2.53;;;1.30;;
30303;SDS011;17112;48.636;10.152;2022-07-11T00:07:28;3.50;;;1.00;;
30303;SDS011;17112;48.636;10.152;2022-07-11T00:09:54;2.15;;;0.95;;
30303;SDS011;17112;48.636;10.152;2022-07-11T00:12:19;2.42;;;0.85;;
30303;SDS011;17112;48.636;10.152;2022-07-11T00:14:46;4.18;;;1.15;;
30303;SDS011;17112;48.636;10.152;2022-07-11T00:17:13;4.03;;;1.08;;
30303;SDS011;17112;48.636;10.152;2022-07-11T00:19:39;3.38;;;0.95;;
30303;SDS011;17112;48.636;10.152;2022-07-11T00:22:04;2.35;;;1.10;;
30303;SDS011;17112;48.636;10.152;2022-07-11T00:24:31;5.03;;;1.10;;
30303;SDS011;17112;48.636;10.152;2022-07-11T00:26:57;4.18;;;1.10;;
30303;SDS011;17112;48.636;10.152;2022-07-11T00:29:23;2.30;;;0.95;;
30303;SDS011;17112;48.636;10.152;2022-07-11T00:31:48;1.42;;;0.73;;
30303;SDS011;17112;48.636;10.152;2022-07-11T00:34:14;2.50;;;1.08;;
30303;SDS011;17112;48.636;10.152;2022-07-11T00:36:41;2.35;;;1.10;;
30303;SDS011;17112;48.636;10.152;2022-07-11T00:39:06;2.15;;;0.77;;
30303;SDS011;17112;48.636;10.152;2022-07-11T00:41:32;2.30;;;0.80;;
30303;SDS011;17112;48.636;10.152;2022-07-11T00:43:58;2.05;;;1.00;;
30303;SDS011;17112;48.636;10.152;2022-07-11T00:46:26;3.03;;;1.10;;
30303;SDS011;17112;48.636;10.152;2022-07-11T00:48:53;1.52;;;0.90;;
30303;SDS011;17112;48.636;10.152;2022-07-11T00:51:20;2.90;;;1.10;;
30303;SDS011;17112;48.636;10.152;2022-07-11T00:53:51;2.42;;;0.85;;
30303;SDS011;17112;48.636;10.152;2022-07-11T00:56:22;3.55;;;0.82;;
30303;SDS011;17112;48.636;10.152;2022-07-11T00:58:50;1.42;;;1.00;;
30303;SDS011;17112;48.636;10.152;2022-07-11T01:01:17;2.70;;;1.10;;
30303;SDS011;17112;48.636;10.152;2022-07-11T01:03:43;2.58;;;1.00;;
30303;SDS011;17112;48.636;10.152;2022-07-11T01:06:09;2.75;;;0.90;;
30303;SDS011;17112;48.636;10.152;2022-07-11T01:08:35;2.47;;;1.00;;
30303;SDS011;17112;48.636;10.152;2022-07-11T01:11:03;2.78;;;0.80;;
30303;SDS011;17112;48.636;10.152;2022-07-11T01:13:30;2.95;;;0.90;;
30303;SDS011;17112;48.636;10.152;2022-07-11T01:16:06;2.03;;;0.98;;
30303;SDS011;17112;48.636;10.152;2022-07-11T01:18:54;1.70;;;0.82;;
30303;SDS011;17112;48.636;10.152;2022-07-11T01:21:24;2.25;;;1.00;;
30303;SDS011;17112;48.636;10.152;2022-07-11T01:23:58;2.20;;;1.10;;
30303;SDS011;17112;48.636;10.152;2022-07-11T01:26:25;3.17;;;0.90;;
30303;SDS011;17112;48.636;10.152;2022-07-11T01:28:52;2.75;;;0.98;;
30303;SDS011;17112;48.636;10.152;2022-07-11T01:31:18;1.40;;;0.75;;
30303;SDS011;17112;48.636;10.152;2022-07-11T01:33:45;2.70;;;1.20;;
30303;SDS011;17112;48.636;10.152;2022-07-11T01:36:11;2.05;;;0.90;;
30303;SDS011;17112;48.636;10.152;2022-07-11T01:38:38;4.05;;;1.10;;
30303;SDS011;17112;48.636;10.152;2022-07-11T01:41:04;1.90;;;0.82;;
30303;SDS011;17112;48.636;10.152;2022-07-11T01:43:30;3.88;;;1.02;;
30303;SDS011;17112;48.636;10.152;2022-07-11T01:45:56;3.03;;;1.20;;
30303;SDS011;17112;48.636;10.152;2022-07-11T01:48:22;1.77;;;0.80;;
30303;SDS011;17112;48.636;10.152;2022-07-11T01:50:48;2.75;;;1.20;;
30303;SDS011;17112;48.636;10.152;2022-07-11T01:53:14;4.22;;;1.20;;
30303;SDS011;17112;48.636;10.152;2022-07-11T01:55:40;3.40;;;1.15;;
30303;SDS011;17112;48.636;10.152;2022-07-11T01:58:06;3.25;;;0.90;;
30303;SDS011;17112;48.636;10.152;2022-07-11T02:00:32;4.75;;;0.95;;
30303;SDS011;17112;48.636;10.152;2022-07-11T02:02:58;2.45;;;1.02;;
30303;SDS011;17112;48.636;10.152;2022-07-11T02:05:24;1.45;;;0.95;;
30303;SDS011;17112;48.636;10.152;2022-07-11T02:07:50;2.95;;;1.10;;
30303;SDS011;17112;48.636;10.152;2022-07-11T02:10:34;2.70;;;1.00;;
30303;SDS011;17112;48.636;10.152;2022-07-11T02:13:00;1.83;;;1.00;;
30303;SDS011;17112;48.636;10.152;2022-07-11T02:15:26;2.85;;;1.10;;
30303;SDS011;17112;48.636;10.152;2022-07-11T02:17:52;1.48;;;0.98;;
30303;SDS011;17112;48.636;10.152;2022-07-11T02:20:18;2.40;;;1.02;;
30303;SDS011;17112;48.636;10.152;2022-07-11T02:22:44;2.85;;;0.90;;
30303;SDS011;17112;48.636;10.152;2022-07-11T02:25:10;1.70;;;1.10;;
30303;SDS011;17112;48.636;10.152;2022-07-11T02:27:36;1.30;;;0.80;;
30303;SDS011;17112;48.636;10.152;2022-07-11T02:30:02;2.13;;;1.00;;
30303;SDS011;17112;48.636;10.152;2022-07-11T02:32:28;4.00;;;1.00;;
30303;SDS011;17112;48.636;10.152;2022-07-11T02:34:53;1.55;;;1.00;;
30303;SDS011;17112;48.636;10.152;2022-07-11T02:37:19;1.85;;;0.95;;
30303;SDS011;17112;48.636;10.152;2022-07-11T02:39:45;1.20;;;0.90;;
30303;SDS011;17112;48.636;10.152;2022-07-11T02:42:12;2.13;;;1.00;;
30303;SDS011;17112;48.636;10.152;2022-07-11T02:44:38;2.35;;;1.20;;
30303;SDS011;17112;48.636;10.152;2022-07-11T02:47:04;1.95;;;0.98;;
30303;SDS011;17112;48.636;10.152;2022-07-11T02:49:30;2.80;;;0.85;;
30303;SDS011;17112;48.636;10.152;2022-07-11T02:51:57;1.35;;;0.88;;
30303;SDS011;17112;48.636;10.152;2022-07-11T02:54:23;3.80;;;0.90;;
30303;SDS011;17112;48.636;10.152;2022-07-11T02:56:49;2.55;;;1.00;;
30303;SDS011;17112;48.636;10.152;2022-07-11T02:59:15;2.10;;;1.00;;
30303;SDS011;17112;48.636;10.152;2022-07-11T03:01:40;3.15;;;1.00;;
30303;SDS011;17112;48.636;10.152;2022-07-11T03:04:09;2.65;;;0.95;;
30303;SDS011;17112;48.636;10.152;2022-07-11T03:06:35;1.67;;;0.90;;
30303;SDS011;17112;48.636;10.152;2022-07-11T03:09:03;2.58;;;1.00;;
30303;SDS011;17112;48.636;10.152;2022-07-11T03:11:30;3.80;;;1.20;;
30303;SDS011;17112;48.636;10.152;2022-07-11T03:13:56;3.10;;;1.02;;
30303;SDS011;17112;48.636;10.152;2022-07-11T03:16:22;1.88;;;1.00;;
30303;SDS011;17112;48.636;10.152;2022-07-11T03:18:48;3.17;;;1.17;;
30303;SDS011;17112;48.636;10.152;2022-07-11T03:21:14;2.58;;;1.13;;
30303;SDS011;17112;48.636;10.152;2022-07-11T03:23:40;2.50;;;1.10;;
30303;SDS011;17112;48.636;10.152;2022-07-11T03:26:06;2.25;;;1.10;;
30303;SDS011;17112;48.636;10.152;2022-07-11T03:28:31;2.08;;;1.15;;
30303;SDS011;17112;48.636;10.152;2022-07-11T03:30:57;2.53;;;1.08;;
30303;SDS011;17112;48.636;10.152;2022-07-11T03:33:23;1.83;;;1.27;;
30303;SDS011;17112;48.636;10.152;2022-07-11T03:35:49;2.45;;;1.10;;
30303;SDS011;17112;48.636;10.152;2022-07-11T03:38:18;4.55;;;1.60;;
30303;SDS011;17112;48.636;10.152;2022-07-11T03:40:45;5.10;;;1.67;;
30303;SDS011;17112;48.636;10.152;2022-07-11T03:43:12;4.72;;;2.05;;
30303;SDS011;17112;48.636;10.152;2022-07-11T03:45:37;4.20;;;1.27;;
30303;SDS011;17112;48.636;10.152;2022-07-11T03:48:04;5.50;;;1.40;;
30303;SDS011;17112;48.636;10.152;2022-07-11T03:50:30;2.33;;;1.08;;
30303;SDS011;17112;48.636;10.152;2022-07-11T03:52:56;1.42;;;0.98;;
30303;SDS011;17112;48.636;10.152;2022-07-11T03:55:22;3.17;;;1.30;;
30303;SDS011;17112;48.636;10.152;2022-07-11T03:57:47;2.80;;;1.02;;
30303;SDS011;17112;48.636;10.152;2022-07-11T04:00:13;2.42;;;1.10;;
30303;SDS011;17112;48.636;10.152;2022-07-11T04:02:39;5.75;;;1.13;;
30303;SDS011;17112;48.636;10.152;2022-07-11T04:05:05;2.78;;;1.00;;
30303;SDS011;17112;48.636;10.152;2022-07-11T04:07:32;2.58;;;1.05;;
30303;SDS011;17112;48.636;10.152;2022-07-11T04:09:57;2.88;;;0.98;;
30303;SDS011;17112;48.636;10.152;2022-07-11T04:12:23;1.63;;;0.90;;
30303;SDS011;17112;48.636;10.152;2022-07-11T04:14:49;2.60;;;1.00;;
30303;SDS011;17112;48.636;10.152;2022-07-11T04:17:14;2.78;;;1.00;;
30303;SDS011;17112;48.636;10.152;2022-07-11T04:19:40;1.70;;;0.90;;
30303;SDS011;17112;48.636;10.152;2022-07-11T04:22:07;2.78;;;1.05;;
30303;SDS011;17112;48.636;10.152;2022-07-11T04:24:33;3.83;;;2.25;;
30303;SDS011;17112;48.636;10.152;2022-07-11T04:26:59;2.22;;;1.20;;
30303;SDS011;17112;48.636;10.152;2022-07-11T04:29:26;2.72;;;1.10;;
30303;SDS011;17112;48.636;10.152;2022-07-11T04:31:51;1.73;;;0.98;;
30303;SDS011;17112;48.636;10.152;2022-07-11T04:34:17;2.42;;;0.90;;
30303;SDS011;17112;48.636;10.152;2022-07-11T04:36:44;1.67;;;0.90;;
30303;SDS011;17112;48.636;10.152;2022-07-11T04:39:10;2.20;;;0.93;;
30303;SDS011;17112;48.636;10.152;2022-07-11T04:41:36;4.10;;;1.10;;
30303;SDS011;17112;48.636;10.152;2022-07-11T04:44:02;2.38;;;1.02;;
30303;SDS011;17112;48.636;10.152;2022-07-11T04:46:27;5.18;;;1.10;;
30303;SDS011;17112;48.636;10.152;2022-07-11T04:48:54;4.18;;;1.13;;
30303;SDS011;17112;48.636;10.152;2022-07-11T04:51:20;5.40;;;1.15;;
30303;SDS011;17112;48.636;10.152;2022-07-11T04:53:46;3.58;;;1.30;;
30303;SDS011;17112;48.636;10.152;2022-07-11T04:56:12;5.57;;;1.42;;
30303;SDS011;17112;48.636;10.152;2022-07-11T04:58:38;1.58;;;1.02;;
30303;SDS011;17112;48.636;10.152;2022-07-11T05:01:04;3.08;;;1.00;;
30303;SDS011;17112;48.636;10.152;2022-07-11T05:03:30;3.17;;;1.13;;
30303;SDS011;17112;48.636;10.152;2022-07-11T05:05:57;2.72;;;1.17;;
30303;SDS011;17112;48.636;10.152;2022-07-11T05:08:23;3.10;;;1.15;;
30303;SDS011;17112;48.636;10.152;2022-07-11T05:10:49;3.10;;;1.08;;
30303;SDS011;17112;48.636;10.152;2022-07-11T05:13:15;2.92;;;0.82;;
30303;SDS011;17112;48.636;10.152;2022-07-11T05:15:40;3.63;;;1.20;;
30303;SDS011;17112;48.636;10.152;2022-07-11T05:18:07;5.32;;;1.20;;
30303;SDS011;17112;48.636;10.152;2022-07-11T05:20:33;3.58;;;1.00;;
30303;SDS011;17112;48.636;10.152;2022-07-11T05:22:59;3.00;;;1.00;;
30303;SDS011;17112;48.636;10.152;2022-07-11T05:25:24;4.97;;;1.65;;
30303;SDS011;17112;48.636;10.152;2022-07-11T05:27:50;3.40;;;1.08;;
30303;SDS011;17112;48.636;10.152;2022-07-11T05:30:16;5.05;;;1.08;;
30303;SDS011;17112;48.636;10.152;2022-07-11T05:32:42;2.75;;;1.15;;
30303;SDS011;17112;48.636;10.152;2022-07-11T05:35:08;2.35;;;1.13;;
30303;SDS011;17112;48.636;10.152;2022-07-11T05:37:34;2.53;;;0.95;;
30303;SDS011;17112;48.636;10.152;2022-07-11T05:40:00;6.22;;;1.00;;
30303;SDS011;17112;48.636;10.152;2022-07-11T05:42:26;3.75;;;1.20;;
30303;SDS011;17112;48.636;10.152;2022-07-11T05:44:52;6.07;;;1.10;;
30303;SDS011;17112;48.636;10.152;2022-07-11T05:47:18;3.13;;;1.45;;
30303;SDS011;17112;48.636;10.152;2022-07-11T05:49:44;7.50;;;1.00;;
30303;SDS011;17112;48.636;10.152;2022-07-11T05:52:09;3.97;;;1.00;;
30303;SDS011;17112;48.636;10.152;2022-07-11T05:54:35;7.55;;;1.30;;
30303;SDS011;17112;48.636;10.152;2022-07-11T05:57:01;4.43;;;1.13;;
30303;SDS011;17112;48.636;10.152;2022-07-11T05:59:27;3.53;;;1.23;;
30303;SDS011;17112;48.636;10.152;2022-07-11T06:01:54;5.90;;;1.05;;
30303;SDS011;17112;48.636;10.152;2022-07-11T06:04:20;7.13;;;1.15;;
30303;SDS011;17112;48.636;10.152;2022-07-11T06:06:46;2.38;;;0.90;;
30303;SDS011;17112;48.636;10.152;2022-07-11T06:09:12;4.28;;;1.02;;
30303;SDS011;17112;48.636;10.152;2022-07-11T06:11:38;5.38;;;1.13;;
30303;SDS011;17112;48.636;10.152;2022-07-11T06:14:04;8.95;;;0.80;;
30303;SDS011;17112;48.636;10.152;2022-07-11T06:16:31;2.10;;;0.90;;
30303;SDS011;17112;48.636;10.152;2022-07-11T06:18:56;3.58;;;1.20;;
30303;SDS011;17112;48.636;10.152;2022-07-11T06:21:23;2.78;;;0.90;;
30303;SDS011;17112;48.636;10.152;2022-07-11T06:23:49;2.40;;;1.17;;
30303;SDS011;17112;48.636;10.152;2022-07-11T06:26:15;2.17;;;0.90;;
30303;SDS011;17112;48.636;10.152;2022-07-11T06:28:41;2.35;;;0.90;;
30303;SDS011;17112;48.636;10.152;2022-07-11T06:31:07;2.28;;;0.93;;
30303;SDS011;17112;48.636;10.152;2022-07-11T06:33:33;4.35;;;1.23;;
30303;SDS011;17112;48.636;10.152;2022-07-11T06:36:00;5.03;;;1.00;;
30303;SDS011;17112;48.636;10.152;2022-07-11T06:38:26;3.08;;;0.93;;
30303;SDS011;17112;48.636;10.152;2022-07-11T06:40:53;2.45;;;0.75;;
30303;SDS011;17112;48.636;10.152;2022-07-11T06:43:19;4.18;;;1.13;;
30303;SDS011;17112;48.636;10.152;2022-07-11T06:45:45;1.40;;;0.70;;
30303;SDS011;17112;48.636;10.152;2022-07-11T06:48:11;1.88;;;1.20;;
30303;SDS011;17112;48.636;10.152;2022-07-11T06:50:37;19.50;;;1.42;;
30303;SDS011;17112;48.636;10.152;2022-07-11T06:53:03;4.80;;;1.08;;
30303;SDS011;17112;48.636;10.152;2022-07-11T06:55:30;1.40;;;0.90;;
30303;SDS011;17112;48.636;10.152;2022-07-11T06:57:56;1.88;;;1.00;;
30303;SDS011;17112;48.636;10.152;2022-07-11T07:00:23;1.95;;;0.88;;
30303;SDS011;17112;48.636;10.152;2022-07-11T07:02:48;2.88;;;1.35;;
30303;SDS011;17112;48.636;10.152;2022-07-11T07:05:14;2.45;;;1.25;;
30303;SDS011;17112;48.636;10.152;2022-07-11T07:07:40;1.88;;;1.10;;
30303;SDS011;17112;48.636;10.152;2022-07-11T07:10:06;4.75;;;0.90;;
30303;SDS011;17112;48.636;10.152;2022-07-11T07:12:32;2.15;;;0.82;;
30303;SDS011;17112;48.636;10.152;2022-07-11T07:15:03;3.00;;;1.27;;
30303;SDS011;17112;48.636;10.152;2022-07-11T07:17:29;1.02;;;0.82;;
30303;SDS011;17112;48.636;10.152;2022-07-11T07:19:56;2.08;;;0.80;;
30303;SDS011;17112;48.636;10.152;2022-07-11T07:22:22;3.58;;;0.63;;
30303;SDS011;17112;48.636;10.152;2022-07-11T07:24:47;1.40;;;0.80;;
30303;SDS011;17112;48.636;10.152;2022-07-11T07:27:15;1.55;;;0.80;;
30303;SDS011;17112;48.636;10.152;2022-07-11T07:29:40;1.02;;;0.57;;
30303;SDS011;17112;48.636;10.152;2022-07-11T07:32:06;1.25;;;0.70;;
30303;SDS011;17112;48.636;10.152;2022-07-11T07:34:32;2.70;;;1.13;;
30303;SDS011;17112;48.636;10.152;2022-07-11T07:36:58;0.93;;;0.60;;
30303;SDS011;17112;48.636;10.152;2022-07-11T07:39:24;0.75;;;0.57;;
30303;SDS011;17112;48.636;10.152;2022-07-11T07:41:50;0.43;;;0.43;;
30303;SDS011;17112;48.636;10.152;2022-07-11T07:44:16;1.38;;;0.82;;
30303;SDS011;17112;48.636;10.152;2022-07-11T07:46:42;0.90;;;0.60;;
30303;SDS011;17112;48.636;10.152;2022-07-11T07:49:07;1.35;;;0.63;;
30303;SDS011;17112;48.636;10.152;2022-07-11T07:51:33;1.88;;;0.55;;
30303;SDS011;17112;48.636;10.152;2022-07-11T07:53:59;1.15;;;0.55;;
30303;SDS011;17112;48.636;10.152;2022-07-11T07:56:24;2.33;;;0.60;;
30303;SDS011;17112;48.636;10.152;2022-07-11T07:58:50;1.08;;;0.60;;
30303;SDS011;17112;48.636;10.152;2022-07-11T08:01:16;1.27;;;0.65;;
30303;SDS011;17112;48.636;10.152;2022-07-11T08:04:02;1.60;;;0.75;;
30303;SDS011;17112;48.636;10.152;2022-07-11T08:06:29;0.80;;;0.60;;
30303;SDS011;17112;48.636;10.152;2022-07-11T08:08:55;1.17;;;0.68;;
30303;SDS011;17112;48.636;10.152;2022-07-11T08:11:21;3.47;;;0.60;;
30303;SDS011;17112;48.636;10.152;2022-07-11T08:13:46;0.65;;;0.57;;
30303;SDS011;17112;48.636;10.152;2022-07-11T08:16:13;1.38;;;0.52;;
30303;SDS011;17112;48.636;10.152;2022-07-11T08:18:39;3.83;;;0.70;;
30303;SDS011;17112;48.636;10.152;2022-07-11T08:21:05;1.10;;;0.50;;
30303;SDS011;17112;48.636;10.152;2022-07-11T08:23:30;1.08;;;0.55;;
30303;SDS011;17112;48.636;10.152;2022-07-11T08:25:56;3.08;;;0.60;;
30303;SDS011;17112;48.636;10.152;2022-07-11T08:28:22;1.10;;;0.50;;
30303;SDS011;17112;48.636;10.152;2022-07-11T08:30:48;3.08;;;0.50;;
30303;SDS011;17112;48.636;10.152;2022-07-11T08:33:14;0.68;;;0.40;;
30303;SDS011;17112;48.636;10.152;2022-07-11T08:35:40;1.70;;;0.60;;
30303;SDS011;17112;48.636;10.152;2022-07-11T08:38:05;7.40;;;0.80;;
30303;SDS011;17112;48.636;10.152;2022-07-11T08:40:32;0.50;;;0.50;;
30303;SDS011;17112;48.636;10.152;2022-07-11T08:42:58;0.50;;;0.30;;
30303;SDS011;17112;48.636;10.152;2022-07-11T08:45:30;0.80;;;0.50;;
30303;SDS011;17112;48.636;10.152;2022-07-11T08:47:56;0.40;;;0.40;;
30303;SDS011;17112;48.636;10.152;2022-07-11T08:50:23;0.35;;;0.32;;
30303;SDS011;17112;48.636;10.152;2022-07-11T08:52:54;0.30;;;0.30;;
30303;SDS011;17112;48.636;10.152;2022-07-11T08:55:23;0.45;;;0.40;;
30303;SDS011;17112;48.636;10.152;2022-07-11T08:57:48;0.40;;;0.40;;
30303;SDS011;17112;48.636;10.152;2022-07-11T09:00:15;0.38;;;0.20;;
30303;SDS011;17112;48.636;10.152;2022-07-11T09:02:42;1.33;;;0.60;;
30303;SDS011;17112;48.636;10.152;2022-07-11T09:05:09;1.08;;;0.38;;
30303;SDS011;17112;48.636;10.152;2022-07-11T09:07:45;0.40;;;0.38;;
30303;SDS011;17112;48.636;10.152;2022-07-11T09:10:15;0.50;;;0.40;;
30303;SDS011;17112;48.636;10.152;2022-07-11T09:15:44;0.35;;;0.35;;
30303;SDS011;17112;48.636;10.152;2022-07-11T09:21:06;15.27;;;0.65;;
30303;SDS011;17112;48.636;10.152;2022-07-11T09:24:00;1.48;;;0.40;;
30303;SDS011;17112;48.636;10.152;2022-07-11T09:26:48;1.80;;;0.57;;
30303;SDS011;17112;48.636;10.152;2022-07-11T09:29:21;2.90;;;0.40;;
30303;SDS011;17112;48.636;10.152;2022-07-11T09:31:49;0.60;;;0.50;;
30303;SDS011;17112;48.636;10.152;2022-07-11T09:36:49;0.60;;;0.50;;
30303;SDS011;17112;48.636;10.152;2022-07-11T09:39:23;1.52;;;0.40;;
30303;SDS011;17112;48.636;10.152;2022-07-11T09:41:53;0.50;;;0.35;;
30303;SDS011;17112;48.636;10.152;2022-07-11T09:44:26;0.40;;;0.32;;
30303;SDS011;17112;48.636;10.152;2022-07-11T09:46:54;3.53;;;0.40;;
30303;SDS011;17112;48.636;10.152;2022-07-11T09:49:31;0.75;;;0.40;;
30303;SDS011;17112;48.636;10.152;2022-07-11T09:54:54;0.47;;;0.30;;
30303;SDS011;17112;48.636;10.152;2022-07-11T09:57:28;0.60;;;0.30;;
30303;SDS011;17112;48.636;10.152;2022-07-11T09:59:54;0.95;;;0.30;;
30303;SDS011;17112;48.636;10.152;2022-07-11T10:02:20;1.30;;;0.50;;
30303;SDS011;17112;48.636;10.152;2022-07-11T10:04:46;1.20;;;0.45;;
30303;SDS011;17112;48.636;10.152;2022-07-11T10:07:13;0.60;;;0.40;;
30303;SDS011;17112;48.636;10.152;2022-07-11T10:09:39;1.40;;;0.60;;
30303;SDS011;17112;48.636;10.152;2022-07-11T10:12:04;0.77;;;0.38;;
30303;SDS011;17112;48.636;10.152;2022-07-11T10:14:30;0.57;;;0.40;;
30303;SDS011;17112;48.636;10.152;2022-07-11T10:17:02;0.73;;;0.40;;
30303;SDS011;17112;48.636;10.152;2022-07-11T10:20:18;0.55;;;0.40;;
30303;SDS011;17112;48.636;10.152;2022-07-11T10:22:42;0.50;;;0.30;;
30303;SDS011;17112;48.636;10.152;2022-07-11T10:25:17;1.15;;;0.50;;
30303;SDS011;17112;48.636;10.152;2022-07-11T10:33:14;0.80;;;0.32;;
30303;SDS011;17112;48.636;10.152;2022-07-11T10:35:42;0.57;;;0.40;;
30303;SDS011;17112;48.636;10.152;2022-07-11T10:38:12;0.90;;;0.40;;
30303;SDS011;17112;48.636;10.152;2022-07-11T10:48:23;0.47;;;0.30;;
30303;SDS011;17112;48.636;10.152;2022-07-11T10:50:53;0.55;;;0.40;;
30303;SDS011;17112;48.636;10.152;2022-07-11T10:53:30;2.47;;;0.50;;
30303;SDS011;17112;48.636;10.152;2022-07-11T10:56:05;0.35;;;0.32;;
30303;SDS011;17112;48.636;10.152;2022-07-11T10:58:42;0.60;;;0.40;;
30303;SDS011;17112;48.636;10.152;2022-07-11T11:01:12;1.30;;;0.50;;
30303;SDS011;17112;48.636;10.152;2022-07-11T11:03:39;0.70;;;0.60;;
30303;SDS011;17112;48.636;10.152;2022-07-11T11:06:06;0.88;;;0.50;;
30303;SDS011;17112;48.636;10.152;2022-07-11T11:16:44;1.02;;;0.40;;
30303;SDS011;17112;48.636;10.152;2022-07-11T11:22:14;0.68;;;0.50;;
30303;SDS011;17112;48.636;10.152;2022-07-11T11:24:45;0.40;;;0.40;;
30303;SDS011;17112;48.636;10.152;2022-07-11T11:27:16;0.70;;;0.50;;
30303;SDS011;17112;48.636;10.152;2022-07-11T11:29:44;0.90;;;0.52;;
30303;SDS011;17112;48.636;10.152;2022-07-11T11:32:11;0.50;;;0.40;;
30303;SDS011;17112;48.636;10.152;2022-07-11T11:34:39;0.50;;;0.40;;
30303;SDS011;17112;48.636;10.152;2022-07-11T11:37:06;1.98;;;0.50;;
30303;SDS011;17112;48.636;10.152;2022-07-11T11:39:33;0.43;;;0.30;;
30303;SDS011;17112;48.636;10.152;2022-07-11T11:42:01;0.75;;;0.50;;
30303;SDS011;17112;48.636;10.152;2022-07-11T11:44:31;1.63;;;0.70;;
30303;SDS011;17112;48.636;10.152;2022-07-11T11:46:57;0.40;;;0.40;;
30303;SDS011;17112;48.636;10.152;2022-07-11T11:49:23;2.35;;;0.60;;
30303;SDS011;17112;48.636;10.152;2022-07-11T11:51:49;0.98;;;0.55;;
30303;SDS011;17112;48.636;10.152;2022-07-11T11:54:22;0.70;;;0.57;;
30303;SDS011;17112;48.636;10.152;2022-07-11T11:56:49;0.77;;;0.50;;
30303;SDS011;17112;48.636;10.152;2022-07-11T11:59:15;0.90;;;0.55;;
30303;SDS011;17112;48.636;10.152;2022-07-11T12:01:47;0.60;;;0.50;;
30303;SDS011;17112;48.636;10.152;2022-07-11T12:04:14;1.33;;;0.55;;
30303;SDS011;17112;48.636;10.152;2022-07-11T12:06:41;1.90;;;0.60;;
30303;SDS011;17112;48.636;10.152;2022-07-11T12:09:12;0.63;;;0.45;;
30303;SDS011;17112;48.636;10.152;2022-07-11T12:11:46;1.13;;;0.63;;
30303;SDS011;17112;48.636;10.152;2022-07-11T12:14:13;1.42;;;0.70;;
30303;SDS011;17112;48.636;10.152;2022-07-11T12:16:46;0.50;;;0.50;;
30303;SDS011;17112;48.636;10.152;2022-07-11T12:19:16;0.73;;;0.63;;
30303;SDS011;17112;48.636;10.152;2022-07-11T12:21:47;1.17;;;0.60;;
30303;SDS011;17112;48.636;10.152;2022-07-11T12:24:18;1.05;;;0.50;;
30303;SDS011;17112;48.636;10.152;2022-07-11T12:26:48;1.35;;;0.50;;
30303;SDS011;17112;48.636;10.152;2022-07-11T12:29:15;0.80;;;0.50;;
30303;SDS011;17112;48.636;10.152;2022-07-11T12:31:47;0.60;;;0.50;;
30303;SDS011;17112;48.636;10.152;2022-07-11T12:34:23;1.17;;;0.45;;
30303;SDS011;17112;48.636;10.152;2022-07-11T12:37:02;6.45;;;1.20;;
30303;SDS011;17112;48.636;10.152;2022-07-11T12:39:29;0.85;;;0.50;;
30303;SDS011;17112;48.636;10.152;2022-07-11T12:41:56;1.17;;;0.60;;
30303;SDS011;17112;48.636;10.152;2022-07-11T12:44:27;0.60;;;0.50;;
30303;SDS011;17112;48.636;10.152;2022-07-11T12:47:14;0.70;;;0.70;;
30303;SDS011;17112;48.636;10.152;2022-07-11T12:49:42;0.80;;;0.65;;
30303;SDS011;17112;48.636;10.152;2022-07-11T12:52:11;0.82;;;0.60;;
30303;SDS011;17112;48.636;10.152;2022-07-11T12:54:37;1.75;;;0.70;;
30303;SDS011;17112;48.636;10.152;2022-07-11T12:57:05;3.60;;;0.82;;
30303;SDS011;17112;48.636;10.152;2022-07-11T12:59:32;1.25;;;0.70;;
30303;SDS011;17112;48.636;10.152;2022-07-11T13:02:00;1.73;;;0.70;;
30303;SDS011;17112;48.636;10.152;2022-07-11T13:06:54;1.45;;;0.93;;
30303;SDS011;17112;48.636;10.152;2022-07-11T13:09:39;0.70;;;0.60;;
30303;SDS011;17112;48.636;10.152;2022-07-11T13:12:05;1.48;;;0.88;;
30303;SDS011;17112;48.636;10.152;2022-07-11T13:14:31;1.25;;;0.73;;
30303;SDS011;17112;48.636;10.152;2022-07-11T13:17:15;0.88;;;0.70;;
30303;SDS011;17112;48.636;10.152;2022-07-11T13:19:42;1.05;;;0.70;;
30303;SDS011;17112;48.636;10.152;2022-07-11T13:22:07;0.82;;;0.80;;
30303;SDS011;17112;48.636;10.152;2022-07-11T13:24:33;1.35;;;0.73;;
30303;SDS011;17112;48.636;10.152;2022-07-11T13:27:04;0.73;;;0.70;;
30303;SDS011;17112;48.636;10.152;2022-07-11T13:29:30;1.52;;;0.70;;
30303;SDS011;17112;48.636;10.152;2022-07-11T13:31:55;0.88;;;0.60;;
30303;SDS011;17112;48.636;10.152;2022-07-11T13:34:21;0.63;;;0.63;;
30303;SDS011;17112;48.636;10.152;2022-07-11T13:36:47;1.02;;;0.73;;
30303;SDS011;17112;48.636;10.152;2022-07-11T13:39:12;0.77;;;0.77;;
30303;SDS011;17112;48.636;10.152;2022-07-11T13:41:38;1.13;;;0.68;;
30303;SDS011;17112;48.636;10.152;2022-07-11T13:44:04;0.75;;;0.73;;
30303;SDS011;17112;48.636;10.152;2022-07-11T13:46:29;0.73;;;0.60;;
30303;SDS011;17112;48.636;10.152;2022-07-11T13:48:55;0.63;;;0.60;;
30303;SDS011;17112;48.636;10.152;2022-07-11T13:51:21;0.73;;;0.70;;
30303;SDS011;17112;48.636;10.152;2022-07-11T13:53:46;2.15;;;0.60;;
30303;SDS011;17112;48.636;10.152;2022-07-11T13:56:12;0.93;;;0.70;;
30303;SDS011;17112;48.636;10.152;2022-07-11T13:58:38;0.70;;;0.70;;
30303;SDS011;17112;48.636;10.152;2022-07-11T14:01:03;1.13;;;1.00;;
30303;SDS011;17112;48.636;10.152;2022-07-11T14:03:29;1.23;;;0.98;;
30303;SDS011;17112;48.636;10.152;2022-07-11T14:05:55;1.85;;;0.70;;
30303;SDS011;17112;48.636;10.152;2022-07-11T14:08:21;2.42;;;1.10;;
30303;SDS011;17112;48.636;10.152;2022-07-11T14:10:47;1.10;;;0.70;;
30303;SDS011;17112;48.636;10.152;2022-07-11T14:13:13;1.45;;;0.73;;
30303;SDS011;17112;48.636;10.152;2022-07-11T14:15:39;1.45;;;0.85;;
30303;SDS011;17112;48.636;10.152;2022-07-11T14:18:06;1.08;;;0.63;;
30303;SDS011;17112;48.636;10.152;2022-07-11T14:20:31;0.80;;;0.70;;
30303;SDS011;17112;48.636;10.152;2022-07-11T14:22:57;0.68;;;0.60;;
30303;SDS011;17112;48.636;10.152;2022-07-11T14:25:23;0.88;;;0.70;;
30303;SDS011;17112;48.636;10.152;2022-07-11T14:27:49;3.00;;;1.00;;
30303;SDS011;17112;48.636;10.152;2022-07-11T14:30:14;1.30;;;0.85;;
30303;SDS011;17112;48.636;10.152;2022-07-11T14:32:40;1.70;;;0.80;;
30303;SDS011;17112;48.636;10.152;2022-07-11T14:35:06;1.75;;;0.77;;
30303;SDS011;17112;48.636;10.152;2022-07-11T14:37:33;0.82;;;0.82;;
30303;SDS011;17112;48.636;10.152;2022-07-11T14:39:59;2.97;;;0.80;;
30303;SDS011;17112;48.636;10.152;2022-07-11T14:42:24;0.80;;;0.80;;
30303;SDS011;17112;48.636;10.152;2022-07-11T14:44:50;1.52;;;1.27;;
30303;SDS011;17112;48.636;10.152;2022-07-11T14:47:16;4.07;;;1.00;;
30303;SDS011;17112;48.636;10.152;2022-07-11T14:49:42;0.70;;;0.70;;
30303;SDS011;17112;48.636;10.152;2022-07-11T14:52:08;2.63;;;0.98;;
30303;SDS011;17112;48.636;10.152;2022-07-11T14:54:34;2.70;;;1.00;;
30303;SDS011;17112;48.636;10.152;2022-07-11T14:57:00;3.65;;;1.00;;
30303;SDS011;17112;48.636;10.152;2022-07-11T14:59:26;1.25;;;0.80;;
30303;SDS011;17112;48.636;10.152;2022-07-11T15:01:51;1.30;;;0.90;;
30303;SDS011;17112;48.636;10.152;2022-07-11T15:04:17;2.92;;;0.80;;
30303;SDS011;17112;48.636;10.152;2022-07-11T15:06:43;2.63;;;0.90;;
30303;SDS011;17112;48.636;10.152;2022-07-11T15:12:11;1.37;;;1.00;;
30303;SDS011;17112;48.636;10.152;2022-07-11T15:14:46;1.52;;;0.80;;